| time (UTC) | temp F | wind direction | speed MPH | gust MPH | rain 1hr in | rain 24hr in | rain mn in | humidity % | barometer mb |
| 20260507134445 | 64 | 292 | 5.0 | 6.0 | 0.00 | 0.00 | 1.09 | 98 | 998.9 |
| 20260507132944 | 64 | 112 | 4.0 | 7.0 | 0.00 | 0.00 | 1.07 | 98 | 996.6 |
| 20260507131444 | 64 | 225 | 5.0 | 0.0 | 0.00 | 0.00 | 1.04 | 98 | 997.9 |
| 20260507125945 | 64 | 270 | 3.0 | 7.0 | 0.00 | 0.00 | 0.89 | 97 | 997.2 |
| 20260507124444 | 64 | 112 | 5.0 | 8.0 | 0.00 | 0.00 | 0.72 | 97 | 997.6 |
| 20260507122945 | 64 | 112 | 4.0 | 6.0 | 0.00 | 0.00 | 0.65 | 97 | 996.9 |
| 20260507121445 | 64 | 225 | 7.0 | 11.0 | 0.00 | 0.00 | 0.64 | 97 | 997.2 |
| 20260507115944 | 65 | 360 | 13.0 | 0.0 | 0.00 | 0.00 | 0.55 | 97 | 996.9 |
| 20260507114445 | 68 | 22 | 8.0 | 14.0 | 0.00 | 0.00 | 0.29 | 96 | 997.2 |
| 20260507112946 | 76 | 292 | 14.0 | 0.0 | 0.00 | 0.00 | 0.05 | 92 | 994.5 |
| 20260507111444 | 80 | 22 | 7.0 | 11.0 | 0.00 | 0.00 | 0.00 | 81 | 995.2 |
| 20260507105945 | 80 | 337 | 9.0 | 0.0 | 0.00 | 0.00 | 0.00 | 81 | 995.6 |
| 20260507104444 | 80 | 315 | 4.0 | 7.0 | 0.00 | 0.00 | 0.00 | 81 | 995.2 |
| 20260507102944 | 80 | 337 | 12.0 | 14.0 | 0.00 | 0.00 | 0.00 | 81 | 994.5 |
| 20260507101445 | 80 | 22 | 4.0 | 11.0 | 0.00 | 0.00 | 0.00 | 81 | 994.5 |
| 20260507095944 | 80 | 292 | 6.0 | 9.0 | 0.00 | 0.00 | 0.00 | 82 | 994.5 |
| 20260507094445 | 79 | 90 | 7.0 | 0.0 | 0.00 | 0.00 | 0.00 | 82 | 994.2 |
| 20260507092945 | 79 | 67 | 8.0 | 10.0 | 0.00 | 0.00 | 0.00 | 82 | 994.9 |
| 20260507091444 | 79 | 22 | 10.0 | 11.0 | 0.00 | 0.00 | 0.00 | 82 | 994.9 |
| 20260507085945 | 79 | 247 | 7.0 | 10.0 | 0.00 | 0.00 | 0.00 | 82 | 995.2 |
| 20260507084446 | 80 | 22 | 10.0 | 0.0 | 0.00 | 0.00 | 0.00 | 82 | 995.6 |
| 20260507082944 | 79 | 337 | 6.0 | 12.0 | 0.00 | 0.00 | 0.00 | 82 | 995.6 |
| 20260507081445 | 79 | 360 | 7.0 | 9.0 | 0.00 | 0.00 | 0.00 | 83 | 996.2 |
| 20260507075944 | 79 | 247 | 4.0 | 7.0 | 0.00 | 0.00 | 0.00 | 83 | 996.6 |
| 20260507074444 | 79 | 337 | 6.0 | 9.0 | 0.00 | 0.00 | 0.00 | 83 | 996.6 |
| 20260507072945 | 79 | 67 | 11.0 | 13.0 | 0.00 | 0.00 | 0.00 | 84 | 996.9 |
| 20260507071444 | 78 | 337 | 7.0 | 9.0 | 0.00 | 0.00 | 0.00 | 86 | 997.2 |
| 20260507065945 | 77 | 22 | 7.0 | 11.0 | 0.00 | 0.00 | 0.00 | 88 | 997.6 |
| 20260507064445 | 77 | 22 | 6.0 | 8.0 | 0.00 | 0.00 | 0.00 | 88 | 997.9 |
| 20260507062944 | 76 | 45 | 7.0 | 0.0 | 0.00 | 0.00 | 0.00 | 90 | 998.3 |
| 20260507061445 | 76 | 22 | 3.0 | 7.0 | 0.00 | 0.00 | 0.00 | 90 | 997.9 |
| 20260507055943 | 76 | 67 | 6.0 | 8.0 | 0.00 | 0.00 | 0.00 | 91 | 997.9 |
| 20260507054444 | 76 | 67 | 11.0 | 12.0 | 0.00 | 0.00 | 0.00 | 91 | 997.9 |
| 20260507052945 | 76 | 360 | 7.0 | 11.0 | 0.00 | 0.00 | 0.00 | 90 | 998.9 |
| 20260507051443 | 76 | 45 | 8.0 | 11.0 | 0.00 | 0.00 | 0.00 | 89 | 1000.0 |
| 20260507045944 | 76 | 45 | 8.0 | 10.0 | 0.00 | 0.00 | 0.00 | 89 | 1000.0 |
| 20260507044445 | 76 | 90 | 6.0 | 11.0 | 0.00 | 0.00 | 0.00 | 89 | 1000.0 |
| 20260507042943 | 77 | 360 | 8.0 | 0.0 | 0.00 | 0.00 | 0.00 | 89 | 1001.0 |
| 20260507041444 | 77 | 112 | 8.0 | 9.0 | 0.00 | 0.00 | 0.00 | 89 | 1001.0 |
| 20260507035945 | 77 | 112 | 7.0 | 8.0 | 0.00 | 0.00 | 0.00 | 89 | 1001.0 |
| 20260507034444 | 77 | 22 | 10.0 | 13.0 | 0.00 | 0.00 | 0.00 | 89 | 1001.0 |
| 20260507032945 | 76 | 45 | 7.0 | 9.0 | 0.00 | 0.00 | 0.00 | 89 | 1001.0 |
| 20260507031445 | 76 | 22 | 9.0 | 0.0 | 0.00 | 0.00 | 0.00 | 88 | 1001.0 |
| 20260507025944 | 76 | 337 | 6.0 | 7.0 | 0.00 | 0.00 | 0.00 | 88 | 1001.0 |
| 20260507024445 | 77 | 22 | 8.0 | 11.0 | 0.00 | 0.00 | 0.00 | 87 | 1001.0 |
| 20260507022946 | 77 | 45 | 5.0 | 8.0 | 0.00 | 0.00 | 0.00 | 87 | 1001.0 |
| 20260507021444 | 77 | 22 | 7.0 | 10.0 | 0.00 | 0.00 | 0.00 | 87 | 1001.0 |
| 20260507015945 | 77 | 45 | 5.0 | 9.0 | 0.00 | 0.00 | 0.00 | 86 | 1001.0 |
| 20260507014444 | 77 | 22 | 11.0 | 0.0 | 0.00 | 0.00 | 0.00 | 86 | 1001.6 |
| 20260507012944 | 77 | 22 | 9.0 | 0.0 | 0.00 | 0.00 | 0.00 | 86 | 1002.0 |
| 20260507011445 | 77 | 45 | 6.0 | 9.0 | 0.00 | 0.00 | 0.00 | 85 | 1002.0 |
| 20260507005944 | 78 | 360 | 7.0 | 0.0 | 0.00 | 0.00 | 0.00 | 84 | 1002.0 |
| 20260507004445 | 78 | 22 | 7.0 | 11.0 | 0.00 | 0.00 | 0.00 | 84 | 1002.7 |
| 20260507002945 | 78 | 360 | 8.0 | 0.0 | 0.00 | 0.00 | 0.00 | 83 | 1002.0 |
| 20260507001444 | 78 | 22 | 7.0 | 10.0 | 0.00 | 0.00 | 0.00 | 83 | 1002.7 |
| 20260506235945 | 78 | 22 | 5.0 | 8.0 | 0.00 | 0.00 | 0.00 | 82 | 1002.7 |
| 20260506234443 | 78 | 45 | 5.0 | 7.0 | 0.00 | 0.00 | 0.00 | 82 | 1002.0 |
| 20260506232944 | 78 | 112 | 4.0 | 5.0 | 0.00 | 0.00 | 0.00 | 82 | 1002.7 |
| 20260506231445 | 79 | 22 | 3.0 | 4.0 | 0.00 | 0.00 | 0.00 | 82 | 1002.7 |
| 20260506225944 | 79 | 90 | 7.0 | 8.0 | 0.00 | 0.00 | 0.00 | 82 | 1002.7 |
| 20260506224444 | 79 | 112 | 5.0 | 0.0 | 0.00 | 0.00 | 0.00 | 82 | 1002.7 |
| 20260506222945 | 79 | 45 | 2.0 | 4.0 | 0.00 | 0.00 | 0.00 | 82 | 1002.7 |
| 20260506221444 | 79 | 67 | 2.0 | 4.0 | 0.00 | 0.00 | 0.00 | 82 | 1002.7 |
| 20260506215945 | 80 | 67 | 4.0 | 6.0 | 0.00 | 0.00 | 0.00 | 81 | 1002.7 |
| 20260506214445 | 80 | 90 | 5.0 | 6.0 | 0.00 | 0.00 | 0.00 | 81 | 1002.7 |
| 20260506212944 | 81 | 67 | 2.0 | 9.0 | 0.00 | 0.00 | 0.00 | 80 | 1002.0 |
| 20260506211445 | 82 | 360 | 8.0 | 0.0 | 0.00 | 0.00 | 0.00 | 79 | 1002.0 |
| 20260506205943 | 83 | 45 | 5.0 | 7.0 | 0.00 | 0.00 | 0.00 | 77 | 1002.7 |
| 20260506204444 | 83 | 45 | 7.0 | 0.0 | 0.00 | 0.00 | 0.00 | 76 | 1002.7 |
| 20260506202945 | 84 | 67 | 6.0 | 7.0 | 0.00 | 0.00 | 0.00 | 76 | 1002.7 |
| 20260506201444 | 84 | 45 | 6.0 | 7.0 | 0.00 | 0.00 | 0.00 | 76 | 1002.7 |
| 20260506195944 | 84 | 22 | 6.0 | 0.0 | 0.00 | 0.00 | 0.00 | 76 | 1003.0 |
| 20260506194445 | 84 | 360 | 6.0 | 9.0 | 0.00 | 0.00 | 0.00 | 77 | 1003.0 |
| 20260506192944 | 84 | 22 | 6.0 | 9.0 | 0.00 | 0.00 | 0.00 | 77 | 1003.0 |
| 20260506191445 | 83 | 67 | 5.0 | 7.0 | 0.00 | 0.00 | 0.00 | 79 | 1003.0 |
| 20260506185946 | 83 | 22 | 7.0 | 9.0 | 0.00 | 0.00 | 0.00 | 79 | 1003.7 |
| 20260506184444 | 83 | 22 | 5.0 | 8.0 | 0.00 | 0.00 | 0.00 | 79 | 1003.7 |
| 20260506182945 | 82 | 45 | 6.0 | 9.0 | 0.00 | 0.00 | 0.00 | 80 | 1004.0 |
| 20260506181443 | 82 | 22 | 6.0 | 7.0 | 0.00 | 0.00 | 0.00 | 80 | 1004.4 |
| 20260506175944 | 83 | 90 | 5.0 | 0.0 | 0.00 | 0.00 | 0.00 | 79 | 1004.4 |
| 20260506174445 | 83 | 360 | 4.0 | 9.0 | 0.00 | 0.00 | 0.00 | 77 | 1004.4 |
| 20260506172944 | 83 | 67 | 5.0 | 9.0 | 0.00 | 0.00 | 0.00 | 77 | 1004.7 |
| 20260506171445 | 84 | 90 | 9.0 | 0.0 | 0.00 | 0.00 | 0.00 | 76 | 1005.0 |
| 20260506165945 | 83 | 22 | 7.0 | 0.0 | 0.00 | 0.00 | 0.00 | 77 | 1005.4 |
| 20260506164444 | 84 | 360 | 8.0 | 9.0 | 0.00 | 0.00 | 0.00 | 76 | 1005.7 |
| 20260506162945 | 84 | 45 | 8.0 | 9.0 | 0.00 | 0.00 | 0.00 | 77 | 1006.1 |
| 20260506161443 | 83 | 45 | 6.0 | 14.0 | 0.00 | 0.00 | 0.00 | 78 | 1006.4 |
| 20260506155944 | 83 | 67 | 7.0 | 8.0 | 0.00 | 0.00 | 0.00 | 77 | 1006.7 |
| 20260506154445 | 82 | 45 | 6.0 | 11.0 | 0.00 | 0.00 | 0.00 | 79 | 1006.7 |
| 20260506152943 | 83 | 45 | 9.0 | 12.0 | 0.00 | 0.00 | 0.00 | 78 | 1007.7 |
| 20260506151444 | 84 | 90 | 11.0 | 0.0 | 0.00 | 0.00 | 0.00 | 77 | 1007.7 |
| 20260506145945 | 82 | 45 | 8.0 | 12.0 | 0.00 | 0.00 | 0.00 | 80 | 1007.7 |
| 20260506144444 | 82 | 45 | 9.0 | 10.0 | 0.00 | 0.00 | 0.00 | 81 | 1008.1 |
| 20260506142945 | 82 | 45 | 8.0 | 11.0 | 0.00 | 0.00 | 0.00 | 81 | 1008.4 |
| 20260506141445 | 81 | 67 | 10.0 | 11.0 | 0.00 | 0.00 | 0.00 | 83 | 1008.8 |
| 20260506135944 | 78 | 67 | 7.0 | 9.0 | 0.00 | 0.00 | 0.00 | 87 | 1009.1 |